• Join FlightAware (Why Join?)
  • Login
  • US Flag 
06:45AM EDT


 

Airport Tracker/Info


-or-


 

Live Flight TrackerFlight Track Log ✈ UAL563 ✈ 12-Mar-2014 ✈ KPHL - KORD

Flight Track Log - Related Links

Times and Time Zones

All times are in EDT time to prevent confusion due to time zone crossing. See the UAL563 flight status page for this flight to view local times or setup timezone preferences in your user account.

Time Position Orientation Groundspeed Altitude Reporting Facility
EDT Latitude Longitude Course Direction KTS MPH feet Rate Location/Type
05:02PM 39.8667 -75.2667 311° West 113 130 900  Level Philadelphia TRACON
05:02PM 39.8667 -75.3167 270° West 197 227 1,900 2,160 Climbing Philadelphia TRACON
05:03PM 39.8500 -75.3833 252° West 213 245 4,400 2,700 Climbing Philadelphia TRACON
05:04PM 39.9000 -75.4333 323° Northwest 291 335 7,400 2,580 Climbing Philadelphia TRACON
05:05PM 39.9514 -75.4608 338° Northwest 310 357 9,100 2,160 Climbing New York Center
05:06PM 40.2058 -75.5500 North  Level FlightAware Approximate
05:06PM 40.0439 -75.4942 345° North 303 349 11,300  Level New York Center
05:07PM 40.2790 -75.6435 311° West  Level FlightAware Approximate
05:07PM 40.1300 -75.5300 342° North 333 383 12,700  Level New York Center
05:08PM 40.2347 -75.5697 344° North 349 402 15,100 1,920 Climbing New York Center
05:09PM 40.2894 -75.6581 309° West 345 397 16,600 840 Climbing New York Center
05:10PM 40.3522 -75.7550 310° West 345 397 16,900 180 Climbing New York Center
05:11PM 40.4186 -75.8553 311° West 340 391 17,000  Climbing New York Center
05:12PM 40.4556 -75.9644 294° West 340 391 17,000  Level New York Center
05:13PM 40.4694 -76.0772 279° West 323 372 17,100 1,320 Climbing New York Center
05:14PM 40.4869 -76.1933 281° West 322 371 19,700 2,280 Climbing New York Center
05:15PM 40.5067 -76.3122 282° West 322 371 21,700 1,860 Climbing New York Center
05:16PM 40.5258 -76.4339 282° West 329 379 23,400 1,620 Climbing New York Center
05:17PM 40.5450 -76.5556 282° West 335 386 25,000 1,320 Climbing New York Center
05:18PM 40.5572 -76.6853 277° West 346 398 26,100 1,260 Climbing New York Center
05:19PM 40.5717 -76.8147 278° West 357 411 27,500 1,440 Climbing New York Center
05:20PM 40.5833 -76.9497 277° West 362 417 29,000 1,020 Climbing New York Center
05:21PM 40.5950 -77.0847 277° West 373 429 29,600 1,080 Climbing New York Center
05:22PM 40.6064 -77.2225 276° West 378 435 31,200 1,200 Climbing New York Center
05:23PM 40.6206 -77.3414 279° West 378 435 32,000 240 Climbing New York Center
05:25PM 40.6411 -77.6158 276° West 378 435 32,000  Level Cleveland Center
05:26PM 40.6522 -77.7503 276° West 374 430 32,000  Level Cleveland Center
05:27PM 40.6672 -77.8869 278° West 377 434 32,000  Level Cleveland Center
05:28PM 40.6867 -78.0239 281° West 380 437 32,000  Level Cleveland Center
05:29PM 40.7058 -78.1631 280° West 384 442 32,100  Climbing Cleveland Center
05:30PM 40.7258 -78.3036 281° West 387 445 32,100 -60 Level Cleveland Center
05:31PM 40.7453 -78.4422 281° West 387 445 32,000 -60 Descending Cleveland Center
05:32PM 40.7639 -78.5831 280° West 387 445 32,000  Level Cleveland Center
05:33PM 40.7867 -78.7522 280° West 388 447 32,000  Level Cleveland Center
05:34PM 40.8047 -78.8939 280° West 388 447 32,000  Level Cleveland Center
05:35PM 40.8231 -79.0250 281° West 393 452 32,000  Level Cleveland Center
05:36PM 40.8403 -79.1675 279° West 394 453 32,000  Level Cleveland Center
05:37PM 40.8589 -79.3094 280° West 394 453 32,000  Level Cleveland Center
05:38PM 40.8806 -79.4803 280° West 395 455 32,000  Level Cleveland Center
05:40PM 40.8975 -79.6228 279° West 396 456 32,000  Level Cleveland Center
05:41PM 40.9156 -79.7647 280° West 395 455 32,000  Level Cleveland Center
05:42PM 40.9322 -79.9036 279° West 391 450 32,000  Level Cleveland Center
05:43PM 40.9494 -80.0439 279° West 390 449 32,000  Level Cleveland Center
05:44PM 40.9675 -80.1839 280° West 390 449 32,000  Level Cleveland Center
05:45PM 40.9836 -80.3244 279° West 389 448 32,000  Level Cleveland Center
05:46PM 41.0036 -80.4953 279° West 392 451 32,000  Level Cleveland Center
05:47PM 41.0208 -80.6383 279° West 395 455 32,000  Level Cleveland Center
05:48PM 41.0378 -80.7839 279° West 398 458 32,000  Level Cleveland Center
05:49PM 41.0519 -80.9294 277° West 399 459 32,000  Level Cleveland Center
05:50PM 41.0608 -81.0753 275° West 399 459 32,000  Level Cleveland Center
05:51PM 41.0694 -81.2242 274° West 401 461 32,000  Level Cleveland Center
05:52PM 41.0806 -81.3956 275° West 398 458 32,000  Level Cleveland Center
05:53PM 41.0900 -81.5433 275° West 397 457 32,000  Level Cleveland Center
05:54PM 41.0989 -81.6886 275° West 391 450 32,000 -60 Level Cleveland Center
05:55PM 41.1072 -81.8339 274° West 390 449 31,900  Descending Cleveland Center
05:56PM 41.1150 -81.9783 274° West 388 447 32,000  Climbing Cleveland Center
05:57PM 41.1231 -82.1228 274° West 388 447 32,000  Level Cleveland Center
05:58PM 41.1308 -82.2656 274° West 387 445 32,000  Level Cleveland Center
05:59PM 41.1378 -82.4075 274° West 385 443 32,000  Level Cleveland Center
06:00PM 41.1464 -82.5508 275° West 384 442 32,000  Level Cleveland Center
06:01PM 41.1528 -82.6942 273° West 384 442 32,000  Level Cleveland Center
06:02PM 41.1597 -82.8392 274° West 386 444 32,000  Level Cleveland Center
06:03PM 41.1678 -82.9844 274° West 389 448 32,000  Level Cleveland Center
06:04PM 41.1758 -83.1539 274° West 392 451 32,000  Level Cleveland Center
06:05PM 41.1831 -83.2986 274° West 391 450 32,000  Level Cleveland Center
06:06PM 41.1897 -83.4419 274° West 391 450 32,000  Level Cleveland Center
06:07PM 41.1956 -83.5853 273° West 391 450 32,000  Level Cleveland Center
06:08PM 41.2022 -83.7283 274° West 391 450 32,000  Level Cleveland Center
06:09PM 41.2092 -83.8914 273° West 395 455 32,000  Level Cleveland Center
06:10PM 41.2144 -84.0367 273° West 395 455 32,000  Level Cleveland Center
06:11PM 41.2214 -84.1831 274° West 395 455 32,000  Level Cleveland Center
06:12PM 41.2264 -84.3303 273° West 399 459 32,000  Level Chicago Center
06:13PM 41.2306 -84.4786 272° West 402 463 32,000  Level Chicago Center
06:14PM 41.2342 -84.6269 272° West 402 463 32,000  Level Chicago Center
06:15PM 41.2389 -84.7756 272° West 403 464 32,000 -60 Level Chicago Center
06:17PM 41.2439 -84.9239 273° West 401 461 31,900 -960 Descending Chicago Center
06:18PM 41.2514 -85.1017 273° West 400 460 30,100 -1,440 Descending Chicago Center
06:19PM 41.2569 -85.2475 273° West 397 457 28,900 -1,200 Descending Chicago Center
06:20PM 41.2617 -85.3928 273° West 392 451 27,700 -1,140 Descending Chicago Center
06:21PM 41.2664 -85.5317 273° West 381 438 26,600 -1,140 Descending Chicago Center
06:22PM 41.2714 -85.6675 273° West 369 425 25,400 -780 Descending Chicago Center
06:23PM 41.2756 -85.8008 272° West 361 415 25,000 -300 Descending Chicago Center
06:24PM 41.2794 -85.9336 272° West 358 412 24,900 -600 Descending Chicago Center
06:25PM 41.2883 -86.0883 274° West 350 403 23,800 -1,020 Descending Chicago Center
06:26PM 41.3042 -86.2139 280° West 345 397 22,800 -1,200 Descending Chicago Center
06:27PM 41.3178 -86.3386 278° West 341 392 21,400 -1,440 Descending Chicago Center
06:28PM 41.3319 -86.4614 279° West 337 388 19,900 -1,620 Descending Chicago Center
06:29PM 41.3561 -86.5792 285° West 331 381 18,100 -1,920 Descending Chicago Center
06:30PM 41.3956 -86.6811 297° West 313 360 16,000 -2,280 Descending Chicago Center
06:31PM 41.4842 -86.7492 330° Northwest 311 358 13,400 -1,920 Descending Chicago Center
06:32PM 41.5603 -86.7853 340° North 298 343 12,000 -720 Descending Chicago Center
06:33PM 41.6500 -86.7942 356° North 300 345 12,000  Level Chicago Center
06:34PM 41.7367 -86.8044 355° North 311 358 12,000  Level Chicago Center
06:35PM 41.8289 -86.8219 352° North 311 358 12,000 -540 Level Chicago Center
06:36PM 41.8956 -86.8850 325° Northwest 315 362 11,000 -1,020 Descending Chicago Center
06:37PM 41.9353 -86.9992 295° West 314 361 9,900 -540 Descending Chicago Center
06:38PM 41.9711 -87.1072 294° West 317 365 10,000 -240 Climbing Chicago Center
06:39PM 41.9819 -87.2147 278° West 263 303 9,500 -1,020 Descending Chicago Center
06:41PM 41.9822 -87.4186 270° West 260 299 7,000 -1,020 Descending Chicago Center
06:42PM 41.9814 -87.5128 269° West 256 295 6,400 -600 Descending Chicago Center
06:43PM 41.9822 -87.6075 271° West 239 275 5,800 -600 Descending Chicago Center
06:44PM 41.9833 -87.6667 271° West 198 228 5,400 -1,140 Descending Chicago TRACON
06:45PM 41.9833 -87.7167 270° West 166 191 3,800 -1,500 Descending Chicago TRACON
06:46PM 41.9833 -87.7833 270° West 163 188 2,400 -1,200 Descending Chicago TRACON
06:47PM 41.9833 -87.8333 270° West 137 158 1,500 -900 Descending Chicago TRACON